Flight Track Log - Related Links

Times and Time Zones

All times are in EDT time to prevent confusion due to time zone crossing. See the N561DA flight status page for this flight to view local times or setup timezone preferences in your user account.


Time Position Orientation Groundspeed Altitude Reporting Facility
EDT Latitude Longitude Course Direction KTS MPH feet Rate Location/Type
Sun 03:59:17 PM 33.0958 -95.9156 85° East 358 412 6,000  Level Fort Worth Center
Sun 04:00:17 PM 33.1033 -95.8336 84° East 290 334 8,800 3,050 Climbing Fort Worth Center
Sun 04:01:17 PM 33.1103 -95.7319 85° East 274 315 12,100 2,950 Climbing Fort Worth Center
Sun 04:02:17 PM 33.1194 -95.6475 83° East 274 315 14,700 2,300 Climbing Fort Worth Center
Sun 04:03:17 PM 33.1244 -95.5481 87° East 280 322 16,700 2,000 Climbing Fort Worth Center
Sun 04:04:00 PM 33.1312 -95.3653 85° East  Level Estimated
Sun 04:04:17 PM 33.1331 -95.4439 84° East 294 338 18,700  Level Fort Worth Center
Sun 04:05:17 PM 33.1419 -95.3394 84° East 312 359 20,700 1,900 Climbing Fort Worth Center
Sun 04:06:17 PM 33.1506 -95.2275 85° East 322 371 22,500 1,150 Climbing Fort Worth Center
Sun 04:07:17 PM 33.1608 -95.1106 84° East 335 386 23,000 250 Climbing Fort Worth Center
Sun 04:08:17 PM 33.1731 -94.9836 83° East 360 414 23,000 550 Level Fort Worth Center
Sun 04:09:17 PM 33.1853 -94.8544 84° East 382 440 24,100 1,250 Climbing Fort Worth Center
Sun 04:10:17 PM 33.2036 -94.7297 80° East 387 445 25,500 1,150 Climbing Fort Worth Center
Sun 04:11:17 PM 33.2217 -94.6100 80° East 381 438 26,400 950 Climbing Fort Worth Center
Sun 04:12:17 PM 33.2419 -94.4875 79° East 375 432 27,400 1,100 Climbing Fort Worth Center
Sun 04:13:17 PM 33.2619 -94.3653 79° East 370 426 28,600 1,250 Climbing Fort Worth Center
Sun 04:14:17 PM 33.2694 -94.2408 86° East 370 426 29,900 1,300 Climbing Fort Worth Center
Sun 04:15:17 PM 33.2789 -94.1236 84° East 370 426 31,200 1,050 Climbing Fort Worth Center
Sun 04:16:17 PM 33.2858 -93.9917 86° East 365 420 32,000 1,200 Climbing Fort Worth Center
Sun 04:17:17 PM 33.2925 -93.8622 86° East 379 436 33,600 1,300 Climbing Fort Worth Center
Sun 04:18:17 PM 33.3058 -93.7400 83° East 385 443 34,600 1,100 Climbing Fort Worth Center
Sun 04:19:17 PM 33.3150 -93.6303 84° East 367 422 35,800 1,050 Climbing Fort Worth Center
Sun 04:20:17 PM 33.3242 -93.5156 85° East 347 399 36,700 900 Climbing Fort Worth Center
Sun 04:21:17 PM 33.3308 -93.4033 86° East 342 394 37,600 850 Climbing Fort Worth Center
Sun 04:22:17 PM 33.3397 -93.2911 85° East 342 394 38,400 750 Climbing Fort Worth Center
Sun 04:23:17 PM 33.3464 -93.1764 86° East 342 394 39,100 650 Climbing Fort Worth Center
Sun 04:24:17 PM 33.3550 -93.0639 85° East 342 394 39,700 600 Climbing Fort Worth Center
Sun 04:25:17 PM 33.3636 -92.9492 85° East 342 394 40,300 550 Climbing Fort Worth Center
Sun 04:26:17 PM 33.3719 -92.8344 85° East 347 399 40,800 350 Climbing Fort Worth Center
Sun 04:27:17 PM 33.3783 -92.7222 86° East 347 399 41,000 67 Climbing Fort Worth Center
Sun 04:29:15 PM 33.3928 -92.4944 86° East 371 427 41,000  Level Memphis Center
Sun 04:30:15 PM 33.3969 -92.3678 88° East 377 434 41,000  Level Memphis Center
Sun 04:31:15 PM 33.4072 -92.2386 85° East 383 441 41,000  Level Memphis Center
Sun 04:32:15 PM 33.4133 -92.1092 87° East 388 447 41,000  Level Memphis Center
Sun 04:33:15 PM 33.4192 -91.9775 87° East 388 447 41,000  Level Memphis Center
Sun 04:34:15 PM 33.4314 -91.8433 84° East 388 447 41,000  Level Memphis Center
Sun 04:35:15 PM 33.4331 -91.6964 89° East 398 458 41,000  Level Memphis Center
Sun 04:36:15 PM 33.4386 -91.5619 87° East 398 458 41,000  Level Memphis Center
Sun 04:37:15 PM 33.4461 -91.4278 86° East 398 458 41,000  Level Memphis Center
Sun 04:38:15 PM 33.4533 -91.2908 86° East 403 464 41,000  Level Memphis Center
Sun 04:39:15 PM 33.4606 -91.1689 86° East 403 464 41,000  Level Memphis Center
Sun 04:40:15 PM 33.4675 -91.0344 86° East 403 464 41,000  Level Memphis Center
Sun 04:41:15 PM 33.4725 -90.9003 87° East 403 464 41,000  Level Memphis Center
Sun 04:42:15 PM 33.4811 -90.7633 86° East 403 464 41,000  Level Memphis Center
Sun 04:43:15 PM 33.4858 -90.6286 88° East 403 464 41,000  Level Memphis Center
Sun 04:44:15 PM 33.4922 -90.4892 87° East 408 470 41,000  Level Memphis Center
Sun 04:45:15 PM 33.4986 -90.3522 87° East 408 470 41,000  Level Memphis Center
Sun 04:46:15 PM 33.5047 -90.2178 87° East 402 463 41,000  Level Memphis Center
Sun 04:47:15 PM 33.5108 -90.0831 87° East 402 463 41,000  Level Memphis Center
Sun 04:48:15 PM 33.5167 -89.9486 87° East 402 463 41,000  Level Memphis Center
Sun 04:49:15 PM 33.5225 -89.8114 87° East 402 463 41,000  Level Memphis Center
Sun 04:50:15 PM 33.5281 -89.6769 87° East 402 463 41,000  Level Memphis Center
Sun 04:51:15 PM 33.5314 -89.5422 88° East 402 463 41,000  Level Memphis Center
Sun 04:52:15 PM 33.5386 -89.4053 86° East 402 463 41,000  Level Memphis Center
Sun 04:53:15 PM 33.5439 -89.2706 87° East 402 463 41,000  Level Memphis Center
Sun 04:54:15 PM 33.5467 -89.1358 89° East 402 463 41,000  Level Memphis Center
Sun 04:55:15 PM 33.5517 -88.9986 87° East 402 463 41,000  Level Memphis Center
Sun 04:56:15 PM 33.5542 -88.8642 89° East 402 463 41,000  Level Memphis Center
Sun 04:57:15 PM 33.5547 -88.7269 90° East 402 463 41,000  Level Memphis Center
Sun 04:58:15 PM 33.5589 -88.5897 88° East 402 463 41,000  Level Memphis Center
Sun 04:59:15 PM 33.5611 -88.4500 89° East 408 470 41,000  Level Memphis Center
Sun 05:00:15 PM 33.5653 -88.3131 88° East 408 470 41,000  Level Memphis Center
Sun 05:02:21 PM 33.5739 -88.0056 88° East 418 481 41,000  Level Atlanta Center
Sun 05:03:21 PM 33.5761 -87.8661 89° East 418 481 41,000  Level Atlanta Center
Sun 05:04:21 PM 33.5806 -87.7242 88° East 418 481 41,000  Level Atlanta Center
Sun 05:05:21 PM 33.5825 -87.5844 89° East 418 481 41,000  Level Atlanta Center
Sun 05:06:21 PM 33.5844 -87.4425 89° East 418 481 41,000 -500 Level Atlanta Center
Sun 05:07:21 PM 33.5883 -87.2981 88° East 423 487 40,000 -1,100 Descending Atlanta Center
Sun 05:08:21 PM 33.5900 -87.1558 89° East 423 487 38,800 -1,250 Descending Atlanta Center
Sun 05:09:21 PM 33.5936 -87.0114 88° East 423 487 37,500 -1,300 Descending Atlanta Center
Sun 05:10:21 PM 33.5825 -86.8639 95° East 428 493 36,200 -1,250 Descending Atlanta Center
Sun 05:11:21 PM 33.5586 -86.7161 101° East 443 510 35,000 -600 Descending Atlanta Center
Sun 05:12:21 PM 33.5367 -86.5633 100° East 454 522 35,000 -100 Level Atlanta Center
Sun 05:13:21 PM 33.5228 -86.4258 97° East 454 522 34,800 -850 Descending Atlanta Center
Sun 05:14:21 PM 33.5025 -86.2833 100° East 448 516 33,300 -1,500 Descending Atlanta Center
Sun 05:15:21 PM 33.5011 -86.1289 91° East 448 516 31,800 -1,500 Descending Atlanta Center
Sun 05:16:21 PM 33.5097 -85.9797 86° East 443 510 30,300 -1,550 Descending Atlanta Center
Sun 05:17:21 PM 33.5161 -85.8353 87° East 438 504 28,700 -1,600 Descending Atlanta Center
Sun 05:18:21 PM 33.5161 -85.6758 90° East 429 494 27,100 -850 Descending Atlanta Center
Sun 05:19:21 PM 33.5244 -85.5314 86° East 429 494 27,000 -50 Descending Atlanta Center
Sun 05:20:21 PM 33.5300 -85.4044 87° East 429 494 27,000  Level Atlanta Center
Sun 05:21:21 PM 33.5336 -85.2575 88° East 436 502 27,000 -700 Level Atlanta Center
Sun 05:22:21 PM 33.5392 -85.1131 87° East 436 502 25,600 -1,450 Descending Atlanta Center
Sun 05:23:21 PM 33.5444 -84.9686 87° East 436 502 24,100 -1,600 Descending Atlanta Center
Sun 05:24:21 PM 33.5497 -84.8289 87° East 430 495 22,400 -1,050 Descending Atlanta Center
Sun 05:25:21 PM 33.5547 -84.6894 87° East 424 488 22,000 -500 Descending Atlanta Center
Sun 05:26:21 PM 33.5614 -84.5500 87° East 419 482 21,400 -1,150 Descending Atlanta Center
Sun 05:27:21 PM 33.5703 -84.4153 85° East 414 476 19,700 -1,872 Descending Atlanta Center
Sun 05:28:26 PM 33.5833 -84.2500 85° East 358 412 17,500 -1,872 Descending Atlanta TRACON
Sun 05:29:26 PM 33.5833 -84.1333 90° East 365 420 15,800 -1,700 Descending Atlanta TRACON
Sun 05:30:26 PM 33.5833 -84.0167 90° East 356 410 14,100 -4,630 Descending Atlanta TRACON
Sun 05:31:33 PM 33.5897 -83.8942 86° East 364 419 6,000 -1,323 Descending Atlanta Center
Sun 05:32:33 PM 33.5914 -83.7769 89° East 359 413 11,300 1,850 Climbing Atlanta Center
Sun 05:33:33 PM 33.5933 -83.6622 89° East 354 407 9,700 -1,250 Descending Atlanta Center
Sun 05:34:33 PM 33.5886 -83.5425 93° East 336 387 8,800 -1,300 Descending Atlanta Center
Sun 05:35:33 PM 33.5861 -83.4453 92° East 311 358 7,100 -1,400 Descending Atlanta Center
Sun 05:36:33 PM 33.5817 -83.3581 93° East 285 328 6,000 -1,450 Descending Atlanta Center
Sun 05:37:33 PM 33.5747 -83.2708 95° East 279 321 4,200 -1,800 Descending Atlanta Center
Sun 05:39:00 PM 33.5833 -83.1333 90° East  Level FlightAware Approximate
Sun 05:46:00 PM 33.5980 -83.1383 90° East  Level Estimated
Sun 05:47:00 PM 33.5980 -83.1383 90° East  Level Estimated
Sun 05:48:00 PM 33.5980 -83.1383 90° East  Level Estimated

Login

Don't have an account? Register now (free) for customized features, flight alerts, and more!